createdAt,value
2023-05-05T00:00:29.866Z,94.55
2023-05-05T00:01:02.424Z,94.75
2023-05-05T00:01:34.201Z,94.64
2023-05-05T00:02:05.890Z,94.46
2023-05-05T00:02:37.677Z,94.36
2023-05-05T00:03:09.522Z,94.34
2023-05-05T00:03:42.792Z,94.33
2023-05-05T00:04:14.624Z,94.68
2023-05-05T00:04:46.269Z,94.61
2023-05-05T00:05:18.031Z,94.49
2023-05-05T00:05:50.236Z,94.30
2023-05-05T00:06:21.867Z,94.54
2023-05-05T00:06:53.481Z,94.51
2023-05-05T00:07:25.142Z,94.60
2023-05-05T00:07:56.739Z,94.55
2023-05-05T00:08:28.721Z,94.72
2023-05-05T00:09:00.406Z,94.79
2023-05-05T00:09:32.050Z,95.04
2023-05-05T00:10:04.309Z,95.31
2023-05-05T00:10:36.634Z,95.25
2023-05-05T00:11:08.228Z,94.91
2023-05-05T00:11:39.883Z,94.77
2023-05-05T00:12:11.589Z,94.65
2023-05-05T00:12:43.234Z,94.23
2023-05-05T00:13:15.267Z,93.69
2023-05-05T00:13:47.181Z,93.89
2023-05-05T00:14:18.801Z,93.99
2023-05-05T00:14:50.442Z,93.97
2023-05-05T00:15:22.130Z,94.11
2023-05-05T00:15:53.988Z,94.45
2023-05-05T00:16:26.050Z,94.36
2023-05-05T00:16:57.774Z,94.08
2023-05-05T00:17:29.440Z,93.94
2023-05-05T00:18:01.050Z,93.89
2023-05-05T00:18:33.918Z,94.33
2023-05-05T00:19:05.999Z,94.55
2023-05-05T00:19:37.697Z,94.37
2023-05-05T00:20:10.011Z,94.32
2023-05-05T00:20:42.001Z,94.13
2023-05-05T00:21:13.610Z,94.22
2023-05-05T00:21:45.227Z,94.25
2023-05-05T00:22:17.001Z,94.20
2023-05-05T00:22:48.788Z,94.02
2023-05-05T00:23:21.126Z,93.96
2023-05-05T00:23:52.754Z,94.14
2023-05-05T00:24:24.417Z,93.64
2023-05-05T00:24:56.127Z,93.53
2023-05-05T00:25:27.942Z,93.46
2023-05-05T00:25:59.503Z,93.59
2023-05-05T00:26:31.022Z,94.00
2023-05-05T00:27:03.523Z,94.21
2023-05-05T00:27:35.156Z,94.11
2023-05-05T00:28:07.075Z,93.89
2023-05-05T00:28:38.717Z,93.76
2023-05-05T00:29:10.480Z,93.57
2023-05-05T00:29:42.099Z,93.54
2023-05-05T00:30:13.843Z,93.37
2023-05-05T00:30:45.544Z,93.45
2023-05-05T00:31:17.217Z,93.78
2023-05-05T00:31:52.075Z,93.69
2023-05-05T00:32:23.773Z,93.54
2023-05-05T00:32:55.685Z,93.65
2023-05-05T00:33:27.358Z,93.51
2023-05-05T00:33:58.968Z,93.37
2023-05-05T00:34:30.725Z,93.42
2023-05-05T00:35:02.324Z,93.31
2023-05-05T00:35:34.202Z,93.30
2023-05-05T00:36:06.060Z,93.32
2023-05-05T00:36:37.723Z,93.20
2023-05-05T00:37:09.341Z,93.11
2023-05-05T00:37:40.971Z,93.00
2023-05-05T00:38:12.699Z,93.05
2023-05-05T00:38:44.368Z,92.83
2023-05-05T00:39:16.416Z,92.99
2023-05-05T00:39:47.992Z,93.51
2023-05-05T00:40:19.781Z,93.34
2023-05-05T00:40:51.432Z,93.31
2023-05-05T00:41:23.194Z,93.17
2023-05-05T00:41:54.784Z,93.20
2023-05-05T00:42:26.795Z,93.45
2023-05-05T00:42:59.647Z,93.31
2023-05-05T00:43:31.371Z,93.48
2023-05-05T00:44:03.533Z,93.84
2023-05-05T00:44:39.325Z,94.00
2023-05-05T00:45:12.365Z,93.84
2023-05-05T00:45:47.715Z,93.26
2023-05-05T00:46:25.457Z,93.26
2023-05-05T00:46:57.143Z,93.52
2023-05-05T00:47:29.131Z,93.35
2023-05-05T00:48:01.615Z,93.35
2023-05-05T00:48:33.691Z,93.29
2023-05-05T00:49:05.498Z,93.25
2023-05-05T00:49:38.196Z,93.14
2023-05-05T00:50:10.873Z,93.37
2023-05-05T00:50:44.311Z,93.31
2023-05-05T00:51:16.980Z,93.48
2023-05-05T00:51:48.578Z,93.87
2023-05-05T00:52:20.306Z,93.60
2023-05-05T00:52:54.981Z,93.36
2023-05-05T00:53:27.502Z,93.01
2023-05-05T00:53:59.216Z,93.29
2023-05-05T00:54:31.045Z,93.49
2023-05-05T00:55:03.987Z,93.56
2023-05-05T00:55:36.736Z,93.51
2023-05-05T00:56:08.723Z,93.48
2023-05-05T00:56:40.507Z,93.63
2023-05-05T00:57:12.264Z,93.32
2023-05-05T00:57:44.556Z,93.40
2023-05-05T00:58:16.184Z,93.48
2023-05-05T00:58:48.162Z,93.25
2023-05-05T00:59:20.709Z,92.10
2023-05-05T00:59:53.141Z,92.17
2023-05-05T01:00:25.452Z,92.16
2023-05-05T01:00:57.040Z,92.43
2023-05-05T01:01:28.927Z,91.70
2023-05-05T01:02:00.605Z,91.79
2023-05-05T01:02:32.450Z,92.40
2023-05-05T01:03:05.655Z,92.81
2023-05-05T01:03:38.985Z,92.35
2023-05-05T01:04:10.692Z,92.02
2023-05-05T01:04:42.584Z,93.03
2023-05-05T01:05:16.206Z,92.92
2023-05-05T01:05:50.458Z,92.83
2023-05-05T01:06:46.282Z,92.66
2023-05-05T01:07:38.795Z,92.77
2023-05-05T01:08:35.050Z,91.55
2023-05-05T01:09:32.426Z,91.94
2023-05-05T01:10:20.619Z,91.94
2023-05-05T01:11:03.191Z,90.89
2023-05-05T01:11:37.708Z,90.44
2023-05-05T01:12:13.106Z,90.53
2023-05-05T01:12:53.638Z,91.05
2023-05-05T01:13:28.298Z,91.89
2023-05-05T01:14:20.685Z,91.68
2023-05-05T01:15:29.385Z,91.62
2023-05-05T01:16:04.646Z,89.62
2023-05-05T01:16:39.211Z,89.77
2023-05-05T01:17:39.731Z,89.91
2023-05-05T01:18:44.932Z,90.85
2023-05-05T01:19:53.716Z,90.81
2023-05-05T01:20:42.539Z,91.13
2023-05-05T01:21:23.552Z,90.99
2023-05-05T01:21:59.256Z,89.13
2023-05-05T01:22:39.588Z,88.40
2023-05-05T01:23:21.462Z,88.09
2023-05-05T01:24:14.726Z,88.26
2023-05-05T01:25:12.262Z,88.22
2023-05-05T01:26:07.505Z,90.10
2023-05-05T01:27:06.305Z,90.11
2023-05-05T01:27:56.094Z,90.88
2023-05-05T01:28:34.469Z,89.44
2023-05-05T01:29:24.520Z,88.38
2023-05-05T01:30:28.821Z,89.63
2023-05-05T01:31:03.287Z,90.14
2023-05-05T01:31:51.951Z,90.09
2023-05-05T01:32:28.476Z,90.26
2023-05-05T01:33:11.470Z,89.86
2023-05-05T01:34:10.053Z,89.69
2023-05-05T01:34:53.790Z,89.87
2023-05-05T01:35:40.491Z,90.45
2023-05-05T01:36:22.692Z,90.34
2023-05-05T01:37:15.615Z,88.80
2023-05-05T01:37:55.655Z,87.88
2023-05-05T01:38:34.868Z,87.83
2023-05-05T01:39:08.386Z,87.83
2023-05-05T01:39:42.830Z,87.99
2023-05-05T01:40:16.029Z,87.84
2023-05-05T01:40:59.431Z,88.66
2023-05-05T01:41:38.707Z,87.92
2023-05-05T01:42:15.187Z,87.36
2023-05-05T01:42:48.238Z,87.07
2023-05-05T01:43:23.394Z,87.01
2023-05-05T01:43:59.738Z,87.41
2023-05-05T01:44:34.780Z,88.00
2023-05-05T01:45:09.481Z,88.70
2023-05-05T01:45:43.689Z,89.02
2023-05-05T01:46:16.538Z,89.39
2023-05-05T01:46:49.563Z,90.00
2023-05-05T01:47:22.771Z,90.00
2023-05-05T01:47:56.413Z,90.22
2023-05-05T01:48:29.940Z,91.07
2023-05-05T01:49:01.965Z,91.28
2023-05-05T01:49:36.157Z,90.65
2023-05-05T01:50:09.635Z,90.49
2023-05-05T01:50:42.923Z,90.04
2023-05-05T01:51:17.613Z,90.16
2023-05-05T01:51:50.074Z,90.24
2023-05-05T01:52:23.691Z,90.10
2023-05-05T01:52:57.291Z,90.37
2023-05-05T01:53:29.628Z,89.26
2023-05-05T01:54:04.501Z,88.22
2023-05-05T01:54:38.280Z,87.92
2023-05-05T01:55:11.953Z,87.40
2023-05-05T01:55:44.176Z,88.76
2023-05-05T01:56:16.983Z,89.28
2023-05-05T01:56:49.266Z,89.14
2023-05-05T01:57:21.781Z,89.50
2023-05-05T01:57:56.092Z,89.87
2023-05-05T01:58:29.982Z,90.26
2023-05-05T01:59:02.609Z,90.09
2023-05-05T01:59:35.412Z,89.78
2023-05-05T02:00:09.819Z,89.96
2023-05-05T02:00:42.843Z,90.29
2023-05-05T02:01:15.751Z,89.86
2023-05-05T02:01:49.445Z,88.70
2023-05-05T02:02:22.454Z,88.62
2023-05-05T02:02:57.054Z,88.69
2023-05-05T02:03:31.485Z,87.95
2023-05-05T02:04:04.822Z,87.45
2023-05-05T02:04:43.543Z,87.01
2023-05-05T02:05:17.099Z,88.94
2023-05-05T02:05:50.106Z,88.81
2023-05-05T02:06:23.044Z,89.31
2023-05-05T02:06:56.519Z,88.56
2023-05-05T02:07:28.613Z,88.50
2023-05-05T02:08:00.463Z,88.52
2023-05-05T02:08:34.632Z,88.99
2023-05-05T02:09:11.753Z,89.24
2023-05-05T02:09:44.710Z,88.71
2023-05-05T02:10:16.832Z,86.32
2023-05-05T02:10:49.830Z,87.43
2023-05-05T02:11:21.862Z,86.52
2023-05-05T02:11:55.205Z,86.56
2023-05-05T02:12:30.009Z,87.78
2023-05-05T02:13:05.714Z,88.66
2023-05-05T02:13:39.344Z,89.19
2023-05-05T02:14:12.554Z,89.27
2023-05-05T02:14:44.782Z,88.28
2023-05-05T02:15:17.091Z,87.28
2023-05-05T02:15:50.786Z,87.48
2023-05-05T02:16:23.613Z,86.82
2023-05-05T02:16:58.488Z,86.23
2023-05-05T02:17:30.875Z,86.97
2023-05-05T02:18:06.238Z,86.16
2023-05-05T02:18:38.902Z,86.11
2023-05-05T02:19:12.343Z,85.23
2023-05-05T02:19:47.859Z,86.57
2023-05-05T02:20:20.637Z,87.73
2023-05-05T02:20:53.299Z,87.58
2023-05-05T02:21:24.919Z,86.93
2023-05-05T02:21:57.383Z,86.21
2023-05-05T02:22:29.071Z,86.34
2023-05-05T02:23:00.730Z,85.58
2023-05-05T02:23:32.443Z,85.71
2023-05-05T02:24:04.540Z,84.14
2023-05-05T02:24:36.324Z,84.27
2023-05-05T02:25:09.019Z,86.15
2023-05-05T02:25:43.333Z,87.18
2023-05-05T02:26:17.078Z,87.31
2023-05-05T02:26:51.968Z,87.66
2023-05-05T02:27:25.617Z,87.66
2023-05-05T02:28:00.854Z,87.98
2023-05-05T02:28:52.932Z,88.25
2023-05-05T02:29:52.140Z,87.06
2023-05-05T02:30:25.201Z,85.73
2023-05-05T02:30:59.522Z,85.84
2023-05-05T02:31:34.242Z,85.22
2023-05-05T02:32:10.171Z,85.31
2023-05-05T02:32:47.153Z,85.91
2023-05-05T02:33:22.860Z,86.32
2023-05-05T02:33:56.562Z,86.52
2023-05-05T02:34:32.780Z,87.46
2023-05-05T02:35:34.787Z,87.39
2023-05-05T02:36:19.178Z,84.43
2023-05-05T02:36:54.663Z,85.19
2023-05-05T02:37:29.848Z,83.82
2023-05-05T02:38:04.902Z,83.28
2023-05-05T02:38:40.606Z,82.66
2023-05-05T02:39:18.553Z,82.08
2023-05-05T02:40:08.679Z,81.92
2023-05-05T02:40:43.458Z,81.94
2023-05-05T02:41:18.933Z,81.81
2023-05-05T02:41:53.372Z,81.66
2023-05-05T02:42:29.896Z,81.56
2023-05-05T02:43:08.529Z,81.33
2023-05-05T02:43:42.099Z,81.59
2023-05-05T02:44:15.640Z,81.87
2023-05-05T02:44:48.076Z,82.32
2023-05-05T02:45:22.648Z,82.59
2023-05-05T02:45:54.257Z,83.33
2023-05-05T02:46:26.831Z,82.90
2023-05-05T02:46:58.672Z,82.58
2023-05-05T02:47:36.946Z,81.80
2023-05-05T02:48:10.634Z,81.60
2023-05-05T02:48:42.300Z,81.52
2023-05-05T02:49:15.541Z,81.53
2023-05-05T02:49:47.191Z,81.23
2023-05-05T02:50:18.867Z,82.19
2023-05-05T02:50:50.527Z,81.82
2023-05-05T02:51:22.211Z,82.09
2023-05-05T02:51:54.051Z,82.37
2023-05-05T02:52:25.698Z,82.46
2023-05-05T02:52:58.658Z,82.19
2023-05-05T02:53:30.592Z,82.10
2023-05-05T02:54:02.727Z,81.61
2023-05-05T02:54:34.395Z,81.42
2023-05-05T02:55:06.659Z,81.85
2023-05-05T02:55:52.051Z,81.39
2023-05-05T02:56:38.453Z,82.00
2023-05-05T02:57:15.351Z,82.09
2023-05-05T02:58:04.899Z,82.03
2023-05-05T02:58:48.038Z,83.46
2023-05-05T02:59:48.888Z,83.24
2023-05-05T03:00:30.720Z,84.38
2023-05-05T03:01:11.098Z,84.83
2023-05-05T03:01:42.701Z,85.10
2023-05-05T03:02:51.792Z,85.26
2023-05-05T03:03:30.622Z,85.35
2023-05-05T03:04:10.342Z,85.85
2023-05-05T03:04:56.967Z,85.25
2023-05-05T03:05:34.848Z,84.49
2023-05-05T03:06:19.638Z,84.63
2023-05-05T03:06:54.649Z,85.36
2023-05-05T03:07:31.149Z,86.30
2023-05-05T03:08:09.872Z,86.09
2023-05-05T03:08:49.557Z,85.01
2023-05-05T03:09:23.300Z,84.76
2023-05-05T03:10:08.738Z,86.33
2023-05-05T03:10:48.019Z,86.37
2023-05-05T03:11:26.203Z,86.53
2023-05-05T03:12:04.021Z,87.27
2023-05-05T03:12:46.668Z,87.76
2023-05-05T03:13:20.875Z,87.89
2023-05-05T03:14:01.389Z,87.60
2023-05-05T03:14:36.968Z,87.87
2023-05-05T03:15:10.328Z,87.82
2023-05-05T03:15:48.499Z,86.71
2023-05-05T03:16:23.291Z,87.26
2023-05-05T03:16:56.727Z,87.84
2023-05-05T03:18:03.996Z,89.07
2023-05-05T03:18:39.974Z,89.13
2023-05-05T03:19:13.137Z,88.97
2023-05-05T03:19:45.112Z,88.53
2023-05-05T03:20:16.894Z,88.34
2023-05-05T03:20:49.096Z,88.38
2023-05-05T03:21:21.641Z,88.54
2023-05-05T03:21:54.257Z,88.73
2023-05-05T03:22:27.747Z,88.73
2023-05-05T03:23:02.245Z,89.15
2023-05-05T03:23:34.690Z,89.40
2023-05-05T03:24:19.821Z,89.61
2023-05-05T03:24:51.566Z,89.51
2023-05-05T03:25:23.411Z,89.88
2023-05-05T03:25:55.039Z,90.00
2023-05-05T03:26:26.847Z,89.77
2023-05-05T03:26:58.516Z,89.70
2023-05-05T03:27:30.539Z,90.00
2023-05-05T03:28:02.159Z,90.48
2023-05-05T03:28:33.739Z,91.43
2023-05-05T03:29:06.904Z,91.14
2023-05-05T03:29:38.577Z,91.10
2023-05-05T03:30:10.881Z,91.14
2023-05-05T03:30:42.910Z,91.05
2023-05-05T03:31:15.162Z,90.84
2023-05-05T03:31:47.196Z,90.51
2023-05-05T03:32:18.925Z,90.60
2023-05-05T03:32:50.533Z,90.92
2023-05-05T03:33:22.170Z,91.28
2023-05-05T03:33:53.956Z,91.04
2023-05-05T03:34:25.566Z,91.47
2023-05-05T03:34:57.202Z,90.87
2023-05-05T03:35:28.896Z,90.51
2023-05-05T03:36:00.604Z,90.66
2023-05-05T03:36:32.437Z,90.28
2023-05-05T03:37:04.124Z,90.21
2023-05-05T03:37:35.894Z,90.12
2023-05-05T03:38:07.517Z,90.84
2023-05-05T03:38:39.079Z,90.59
2023-05-05T03:39:10.963Z,90.63
2023-05-05T03:39:42.573Z,91.04
2023-05-05T03:40:14.326Z,91.03
2023-05-05T03:40:45.972Z,91.08
2023-05-05T03:41:17.591Z,91.16
2023-05-05T03:41:49.302Z,91.20
2023-05-05T03:42:21.017Z,91.25
2023-05-05T03:42:52.661Z,91.26
2023-05-05T03:43:24.325Z,92.71
2023-05-05T03:43:56.040Z,93.15
2023-05-05T03:44:28.039Z,92.99
2023-05-05T03:44:59.612Z,92.30
2023-05-05T03:45:31.276Z,91.92
2023-05-05T03:46:02.917Z,91.96
2023-05-05T03:46:34.675Z,92.43
2023-05-05T03:47:06.352Z,92.19
2023-05-05T03:47:38.049Z,92.15
2023-05-05T03:48:10.113Z,92.40
2023-05-05T03:48:42.278Z,91.81
2023-05-05T03:49:16.766Z,91.45
2023-05-05T03:49:48.448Z,91.81
2023-05-05T03:50:20.088Z,91.65
2023-05-05T03:50:52.927Z,91.68
2023-05-05T03:51:25.065Z,92.24
2023-05-05T03:51:56.719Z,92.48
2023-05-05T03:52:28.352Z,92.20
2023-05-05T03:52:59.964Z,92.11
2023-05-05T03:53:31.541Z,92.26
2023-05-05T03:54:03.468Z,92.42
2023-05-05T03:54:35.050Z,92.25
2023-05-05T03:55:07.099Z,92.52
2023-05-05T03:55:38.659Z,92.26
2023-05-05T03:56:10.315Z,92.36
2023-05-05T03:56:42.018Z,92.23
2023-05-05T03:57:13.651Z,92.15
2023-05-05T03:57:46.096Z,92.03
2023-05-05T03:58:17.873Z,91.70
2023-05-05T03:58:49.453Z,91.70
2023-05-05T03:59:21.068Z,92.55
2023-05-05T03:59:53.887Z,92.83
2023-05-05T04:00:25.556Z,92.28
2023-05-05T04:00:57.439Z,92.09
2023-05-05T04:01:31.816Z,92.69
2023-05-05T04:02:03.499Z,92.60
2023-05-05T04:02:35.178Z,92.41
2023-05-05T04:03:07.000Z,92.45
2023-05-05T04:03:39.355Z,92.20
2023-05-05T04:04:11.497Z,92.18
2023-05-05T04:04:43.154Z,92.02
2023-05-05T04:05:14.892Z,92.52
2023-05-05T04:05:47.118Z,92.46
2023-05-05T04:06:18.797Z,92.66
2023-05-05T04:06:50.418Z,93.08
2023-05-05T04:07:23.725Z,92.53
2023-05-05T04:07:55.690Z,92.07
2023-05-05T04:08:27.346Z,92.25
2023-05-05T04:08:58.964Z,92.58
2023-05-05T04:09:30.591Z,92.19
2023-05-05T04:10:02.297Z,92.13
2023-05-05T04:10:34.008Z,91.93
2023-05-05T04:11:05.712Z,92.15
2023-05-05T04:11:37.358Z,92.01
2023-05-05T04:12:09.060Z,92.07
2023-05-05T04:12:40.633Z,92.12
2023-05-05T04:13:12.524Z,92.49
2023-05-05T04:13:44.244Z,92.13
2023-05-05T04:14:16.379Z,92.33
2023-05-05T04:14:48.006Z,92.02
2023-05-05T04:15:19.687Z,91.77
2023-05-05T04:15:51.410Z,91.95
2023-05-05T04:16:23.275Z,91.96
2023-05-05T04:16:54.965Z,92.05
2023-05-05T04:17:26.651Z,92.63
2023-05-05T04:17:58.409Z,92.21
2023-05-05T04:18:30.025Z,92.13
2023-05-05T04:19:01.616Z,92.01
2023-05-05T04:19:33.853Z,92.00
2023-05-05T04:20:07.209Z,92.30
2023-05-05T04:20:39.056Z,92.16
2023-05-05T04:21:10.694Z,92.01
2023-05-05T04:21:42.598Z,92.10
2023-05-05T04:22:14.242Z,92.45
2023-05-05T04:22:46.141Z,92.93
2023-05-05T04:23:17.784Z,92.47
2023-05-05T04:23:49.429Z,92.74
2023-05-05T04:24:24.789Z,92.52
2023-05-05T04:24:56.480Z,93.22
2023-05-05T04:25:28.073Z,93.77
2023-05-05T04:25:59.713Z,93.88
2023-05-05T04:26:31.730Z,93.24
2023-05-05T04:27:03.451Z,92.92
2023-05-05T04:27:35.715Z,92.64
2023-05-05T04:28:07.353Z,92.54
2023-05-05T04:28:38.936Z,92.30
2023-05-05T04:29:10.991Z,92.16
2023-05-05T04:29:42.606Z,92.47
2023-05-05T04:30:15.053Z,92.88
2023-05-05T04:30:47.119Z,93.05
2023-05-05T04:31:18.832Z,92.48
2023-05-05T04:31:50.845Z,92.26
2023-05-05T04:32:22.698Z,92.45
2023-05-05T04:32:54.397Z,92.59
2023-05-05T04:33:26.217Z,92.26
2023-05-05T04:33:57.880Z,91.83
2023-05-05T04:34:29.516Z,91.77
2023-05-05T04:35:01.392Z,91.77
2023-05-05T04:35:33.123Z,91.83
2023-05-05T04:36:04.985Z,91.83
2023-05-05T04:36:36.749Z,91.93
2023-05-05T04:37:08.596Z,91.65
2023-05-05T04:37:40.221Z,91.77
2023-05-05T04:38:11.925Z,92.16
2023-05-05T04:38:43.533Z,92.67
2023-05-05T04:39:15.165Z,92.32
2023-05-05T04:39:46.933Z,91.81
2023-05-05T04:40:18.544Z,91.45
2023-05-05T04:40:50.164Z,91.18
2023-05-05T04:41:21.817Z,90.95
2023-05-05T04:41:53.436Z,90.72
2023-05-05T04:42:25.066Z,90.94
2023-05-05T04:42:56.641Z,91.69
2023-05-05T04:43:28.231Z,91.22
2023-05-05T04:43:59.799Z,91.17
2023-05-05T04:44:31.542Z,91.02
2023-05-05T04:45:03.277Z,91.09
2023-05-05T04:45:34.896Z,91.70
2023-05-05T04:46:06.609Z,91.59
2023-05-05T04:46:38.364Z,92.07
2023-05-05T04:47:11.477Z,91.63
2023-05-05T04:47:45.047Z,92.24
2023-05-05T04:48:16.673Z,92.34
2023-05-05T04:48:48.463Z,91.99
2023-05-05T04:49:20.126Z,91.50
2023-05-05T04:49:51.738Z,91.62
2023-05-05T04:50:23.360Z,91.60
2023-05-05T04:50:54.976Z,91.52
2023-05-05T04:51:27.751Z,91.23
2023-05-05T04:51:59.375Z,91.30
2023-05-05T04:52:31.042Z,91.40
2023-05-05T04:53:02.909Z,91.48
2023-05-05T04:53:34.524Z,91.27
2023-05-05T04:54:07.480Z,90.85
2023-05-05T04:54:39.109Z,90.99
2023-05-05T04:55:11.622Z,90.98
2023-05-05T04:55:43.300Z,90.76
2023-05-05T04:56:14.961Z,90.71
2023-05-05T04:56:46.726Z,91.35
2023-05-05T04:57:18.347Z,91.54
2023-05-05T04:57:49.931Z,91.50
2023-05-05T04:58:21.569Z,90.93
2023-05-05T04:58:53.170Z,90.90
2023-05-05T04:59:24.827Z,91.12
2023-05-05T04:59:56.533Z,91.41
2023-05-05T05:00:28.128Z,91.50
2023-05-05T05:00:59.746Z,91.44
2023-05-05T05:01:31.881Z,90.60
2023-05-05T05:02:03.588Z,90.16
2023-05-05T05:02:37.576Z,90.60
2023-05-05T05:03:10.722Z,90.79
2023-05-05T05:03:42.726Z,90.53
2023-05-05T05:04:18.474Z,90.48
2023-05-05T05:04:50.178Z,90.70
2023-05-05T05:05:21.942Z,90.63
2023-05-05T05:05:53.684Z,90.22
2023-05-05T05:06:25.379Z,90.07
2023-05-05T05:06:59.119Z,90.37
2023-05-05T05:07:31.053Z,90.49
2023-05-05T05:08:02.662Z,90.15
2023-05-05T05:08:34.272Z,90.39
2023-05-05T05:09:05.869Z,90.32
2023-05-05T05:09:37.829Z,90.01
2023-05-05T05:10:09.929Z,89.68
2023-05-05T05:10:42.309Z,89.81
2023-05-05T05:11:13.949Z,90.20
2023-05-05T05:11:45.562Z,89.90
2023-05-05T05:12:17.264Z,89.60
2023-05-05T05:12:49.123Z,89.49
2023-05-05T05:13:20.873Z,89.36
2023-05-05T05:13:53.225Z,89.84
2023-05-05T05:14:24.865Z,89.46
2023-05-05T05:14:56.591Z,89.36
2023-05-05T05:15:28.170Z,88.88
2023-05-05T05:16:00.883Z,88.22
2023-05-05T05:16:32.644Z,87.75
2023-05-05T05:17:04.676Z,87.98
2023-05-05T05:17:36.367Z,87.36
2023-05-05T05:18:08.043Z,87.98
2023-05-05T05:18:39.692Z,88.08
2023-05-05T05:19:11.369Z,88.05
2023-05-05T05:19:43.174Z,88.29
2023-05-05T05:20:14.805Z,88.60
2023-05-05T05:20:46.464Z,89.12
2023-05-05T05:21:18.103Z,88.91
2023-05-05T05:21:49.734Z,89.32
2023-05-05T05:22:21.490Z,89.36
2023-05-05T05:22:53.126Z,89.21
2023-05-05T05:23:24.721Z,89.77
2023-05-05T05:23:56.320Z,88.82
2023-05-05T05:24:27.972Z,88.60
2023-05-05T05:24:59.561Z,88.64
2023-05-05T05:25:31.253Z,88.28
2023-05-05T05:26:05.223Z,88.21
2023-05-05T05:26:36.870Z,88.13
2023-05-05T05:27:10.092Z,87.96
2023-05-05T05:27:42.366Z,87.91
2023-05-05T05:28:13.979Z,87.81
2023-05-05T05:28:45.732Z,89.47
2023-05-05T05:29:17.439Z,89.84
2023-05-05T05:29:49.012Z,89.68
2023-05-05T05:30:20.805Z,88.30
2023-05-05T05:30:52.864Z,87.69
2023-05-05T05:31:24.588Z,88.07
2023-05-05T05:31:56.206Z,87.59
2023-05-05T05:32:27.961Z,87.26
2023-05-05T05:32:59.580Z,87.43
2023-05-05T05:33:31.173Z,87.74
2023-05-05T05:34:02.779Z,87.29
2023-05-05T05:34:34.417Z,86.95
2023-05-05T05:35:06.654Z,86.84
2023-05-05T05:35:38.462Z,87.16
2023-05-05T05:36:10.100Z,86.96
2023-05-05T05:36:41.761Z,86.82
2023-05-05T05:37:13.380Z,86.91
2023-05-05T05:37:45.971Z,86.94
2023-05-05T05:38:17.966Z,86.52
2023-05-05T05:38:49.585Z,86.30
2023-05-05T05:39:21.840Z,86.72
2023-05-05T05:39:53.479Z,86.47
2023-05-05T05:40:25.184Z,86.47
2023-05-05T05:40:56.840Z,85.24
2023-05-05T05:41:28.502Z,84.25
2023-05-05T05:42:00.147Z,84.09
2023-05-05T05:42:31.872Z,84.09
2023-05-05T05:43:04.110Z,83.98
2023-05-05T05:43:36.003Z,84.13
2023-05-05T05:44:07.600Z,84.46
2023-05-05T05:44:39.208Z,84.63
2023-05-05T05:45:11.003Z,84.59
2023-05-05T05:45:42.850Z,83.86
2023-05-05T05:46:14.812Z,83.91
2023-05-05T05:46:46.536Z,83.31
2023-05-05T05:47:18.282Z,82.83
2023-05-05T05:47:50.480Z,82.67
2023-05-05T05:48:24.850Z,82.40
2023-05-05T05:48:56.582Z,82.22
2023-05-05T05:49:28.209Z,81.60
2023-05-05T05:49:59.833Z,81.75
2023-05-05T05:50:31.450Z,78.10
2023-05-05T05:51:03.211Z,76.48
2023-05-05T05:51:34.878Z,76.91
2023-05-05T05:52:06.502Z,77.34
2023-05-05T05:52:38.222Z,76.87
2023-05-05T05:53:09.790Z,76.67
2023-05-05T05:53:41.815Z,76.32
2023-05-05T05:54:13.521Z,77.12
2023-05-05T05:54:45.118Z,76.42
2023-05-05T05:55:16.851Z,73.90
2023-05-05T05:55:48.782Z,74.58
2023-05-05T05:56:20.365Z,73.41
2023-05-05T05:56:52.060Z,73.48
2023-05-05T05:57:24.631Z,75.45
2023-05-05T05:57:56.279Z,75.52
2023-05-05T05:58:27.869Z,72.16
2023-05-05T05:58:59.498Z,71.65
2023-05-05T05:59:31.207Z,75.30
2023-05-05T06:00:03.143Z,72.15
2023-05-05T06:00:34.714Z,70.38
2023-05-05T06:01:06.450Z,71.38
2023-05-05T06:01:38.154Z,70.84
2023-05-05T06:02:09.983Z,70.79
2023-05-05T06:02:41.960Z,71.26
2023-05-05T06:03:14.084Z,71.37
2023-05-05T06:03:46.083Z,71.60
2023-05-05T06:04:17.872Z,71.36
2023-05-05T06:04:49.535Z,72.60
2023-05-05T06:05:21.144Z,72.93
2023-05-05T06:05:52.734Z,71.97
2023-05-05T06:06:24.400Z,72.39
2023-05-05T06:06:56.139Z,72.80
2023-05-05T06:07:27.826Z,70.59
2023-05-05T06:07:59.609Z,70.56
2023-05-05T06:08:31.369Z,70.53
2023-05-05T06:09:03.029Z,71.31
2023-05-05T06:09:34.641Z,70.42
2023-05-05T06:10:22.674Z,70.08
2023-05-05T06:10:57.107Z,69.73
2023-05-05T06:11:28.709Z,69.32
2023-05-05T06:12:00.361Z,69.22
2023-05-05T06:12:32.111Z,68.94
2023-05-05T06:13:03.862Z,69.46
2023-05-05T06:13:35.518Z,68.93
2023-05-05T06:14:07.164Z,68.99
2023-05-05T06:14:38.808Z,68.99
2023-05-05T06:15:10.965Z,69.29
2023-05-05T06:15:42.576Z,69.60
2023-05-05T06:16:14.180Z,69.30
2023-05-05T06:16:45.940Z,69.37
2023-05-05T06:17:17.611Z,69.34
2023-05-05T06:17:49.245Z,70.37
2023-05-05T06:18:20.893Z,70.00
2023-05-05T06:18:52.632Z,69.52
2023-05-05T06:19:24.273Z,69.30
2023-05-05T06:19:56.039Z,69.23
2023-05-05T06:20:27.652Z,70.14
2023-05-05T06:21:00.280Z,70.24
2023-05-05T06:21:31.895Z,70.76
2023-05-05T06:22:03.509Z,70.75
2023-05-05T06:22:35.085Z,70.86
2023-05-05T06:23:07.086Z,70.17
2023-05-05T06:23:39.201Z,71.05
2023-05-05T06:24:10.850Z,71.38
2023-05-05T06:24:42.528Z,71.04
2023-05-05T06:25:14.146Z,70.53
2023-05-05T06:25:45.820Z,71.63
2023-05-05T06:26:17.505Z,69.27
2023-05-05T06:26:49.118Z,69.62
2023-05-05T06:27:20.784Z,69.88
2023-05-05T06:27:52.405Z,69.85
2023-05-05T06:28:24.124Z,69.45
2023-05-05T06:28:55.960Z,69.57
2023-05-05T06:29:30.002Z,69.60
2023-05-05T06:30:01.750Z,69.63
2023-05-05T06:30:33.831Z,69.06
2023-05-05T06:31:05.815Z,69.39
2023-05-05T06:31:37.505Z,68.26
2023-05-05T06:32:09.197Z,68.56
2023-05-05T06:32:40.892Z,69.42
2023-05-05T06:33:12.505Z,69.33
2023-05-05T06:33:44.132Z,68.92
2023-05-05T06:34:15.863Z,68.75
2023-05-05T06:34:48.373Z,68.73
2023-05-05T06:35:22.104Z,69.04
2023-05-05T06:35:54.397Z,68.79
2023-05-05T06:36:26.391Z,68.95
2023-05-05T06:36:58.032Z,68.72
2023-05-05T06:37:29.605Z,68.49
2023-05-05T06:38:01.235Z,68.70
2023-05-05T06:38:32.863Z,68.25
2023-05-05T06:39:04.637Z,69.14
2023-05-05T06:39:36.423Z,68.49
2023-05-05T06:40:09.375Z,68.74
2023-05-05T06:40:41.280Z,69.52
2023-05-05T06:41:12.956Z,69.18
2023-05-05T06:41:44.568Z,69.19
2023-05-05T06:42:16.381Z,69.11
2023-05-05T06:42:48.057Z,69.05
2023-05-05T06:43:19.880Z,69.35
2023-05-05T06:43:51.557Z,68.80
2023-05-05T06:44:23.170Z,68.70
2023-05-05T06:44:54.783Z,68.30
2023-05-05T06:45:26.695Z,68.73
2023-05-05T06:45:58.302Z,68.81
2023-05-05T06:46:30.028Z,68.14
2023-05-05T06:47:01.832Z,69.01
2023-05-05T06:47:33.570Z,68.33
2023-05-05T06:48:05.250Z,68.15
2023-05-05T06:48:37.049Z,68.72
2023-05-05T06:49:08.645Z,68.62
2023-05-05T06:49:40.258Z,68.67
2023-05-05T06:50:11.996Z,68.87
2023-05-05T06:50:43.636Z,69.54
2023-05-05T06:51:15.655Z,69.42
2023-05-05T06:51:47.310Z,68.94
2023-05-05T06:52:19.020Z,68.34
2023-05-05T06:52:50.753Z,68.02
2023-05-05T06:53:22.368Z,68.03
2023-05-05T06:53:53.925Z,68.98
2023-05-05T06:54:25.778Z,70.77
2023-05-05T06:54:57.462Z,71.31
2023-05-05T06:55:29.112Z,69.95
2023-05-05T06:56:00.816Z,69.20
2023-05-05T06:56:32.402Z,68.87
2023-05-05T06:57:04.019Z,68.79
2023-05-05T06:57:35.873Z,68.40
2023-05-05T06:58:07.475Z,68.62
2023-05-05T06:58:39.086Z,69.44
2023-05-05T06:59:10.918Z,67.49
2023-05-05T06:59:42.499Z,67.88
2023-05-05T07:00:15.200Z,68.15
2023-05-05T07:00:47.237Z,67.95
2023-05-05T07:01:19.143Z,68.35
2023-05-05T07:01:51.853Z,68.10
2023-05-05T07:02:25.279Z,67.51
2023-05-05T07:02:58.299Z,67.82
2023-05-05T07:03:30.131Z,68.30
2023-05-05T07:04:01.944Z,67.47
2023-05-05T07:04:33.625Z,67.07
2023-05-05T07:05:05.665Z,67.94
2023-05-05T07:05:37.632Z,68.68
2023-05-05T07:06:09.359Z,68.67
2023-05-05T07:06:41.207Z,68.30
2023-05-05T07:07:12.883Z,68.05
2023-05-05T07:07:54.878Z,67.49
2023-05-05T07:08:26.446Z,67.06
2023-05-05T07:08:58.216Z,67.05
2023-05-05T07:09:29.965Z,67.18
2023-05-05T07:10:01.779Z,67.31
2023-05-05T07:10:33.375Z,67.10
2023-05-05T07:11:05.030Z,66.96
2023-05-05T07:11:37.801Z,68.35
2023-05-05T07:12:09.422Z,68.74
2023-05-05T07:12:41.118Z,67.49
2023-05-05T07:13:13.173Z,66.96
2023-05-05T07:13:44.757Z,67.97
2023-05-05T07:14:16.416Z,67.35